x

Apk - Aripeka, Fl (arpf1) Weather Station

12:54 - Fri 22nd Mar 2019 All times are EDT. -4 hours from GMT.

  • Wind
    13mph, 15mph gusts
  • Air Temp 71°f
  • Sea Pressure 1020mb
  • Apk - Aripeka, Fl
  • Apk - Aripeka, Fl

More Historic Weather Station data

Upgrade to MSW Pro to gain access to the past 30 days of data for over 8000 Wavebouys and Weather Stations around the globe.

Join

Comparision Forecast

View Surf forecast
   
ven. 03/22 12:54 13 15 mph 1020mb 71f
11:54 11 14 mph 1020mb 71f
10:54 13 15 mph 1020.1mb 71f
9:54 10 13 mph 1019.2mb -
8:54  -  2 mph 1018.8mb 65f
7:54  -  1 mph 1018.5mb 55f
6:54 2 2 mph 1018mb -
5:54 2 3 mph 1017.5mb 59f
4:54 1 3 mph 1017.2mb 67f
3:54 2 7 mph 1017.4mb 68f
2:54 3 9 mph 1017.4mb 69f
1:54 6 11 mph 1017.6mb 69f
12:54 9 21 mph 1017.5mb 68f
jeu. 03/21 11:54 14 21 mph 1017.4mb 68f
10:54 20 24 mph 1016.9mb 68f
9:54 21 25 mph 1016mb 68f
8:54 20 23 mph 1015.6mb 68f
7:54 21 29 mph 1015.1mb 70f
6:54 16 22 mph 1014.7mb 71f
5:54 15 18 mph 1014.9mb 72f
4:54 13 17 mph 1015.2mb 72f
3:54 13 17 mph 1015.6mb 71f
2:54 11 14 mph 1016.4mb 70f
1:54 13 16 mph 1017.2mb 69f
12:54 5 7 mph 1018.1mb 68f
11:54 6 8 mph 1018.6mb 67f
10:54 6 7 mph 1018.8mb 73f
9:54 3 6 mph 1018.6mb 68f
8:54  -  3 mph 1018.3mb 65f
7:54 2 7 mph 1017.8mb 62f
6:54  -  3 mph 1017.3mb 64f
5:54 1 3 mph 1016.9mb 62f
4:54 2 3 mph 1016.6mb 61f
3:54 2 3 mph 1016.9mb 66f
2:54  -  5 mph 1017.4mb 68f
1:54 1 3 mph 1017.7mb 69f
12:54  -  3 mph 1018.1mb 69f
mer. 03/20 11:54 2 3 mph 1018.6mb 69f
10:54  -  3 mph 1018.6mb 69f
9:54 1 3 mph 1018.3mb 69f
8:54 2 7 mph 1017.9mb 77f
7:54 3 9 mph 1017.4mb 77f
6:54 3 13 mph 1017mb 77f
5:54 5 8 mph 1017mb 77f
4:54 5 9 mph 1016.9mb 78f
3:54 6 13 mph 1017.2mb 78f
2:54 5 9 mph 1017.8mb 78f
1:54 5 10 mph 1018.8mb 77f
12:54 8 11 mph 1019.5mb 77f
11:54 11 17 mph 1020.1mb 73f
10:54 9 13 mph 1020.1mb 71f
9:54 8 13 mph 1019.8mb 67f
8:54 8 15 mph 1019.3mb 63f
7:54 9 13 mph 1019mb 62f
6:54 7 11 mph 1018.6mb 62f
5:54 9 13 mph 1018.3mb 63f
4:54 8 11 mph 1018.3mb 63f
3:54 11 15 mph 1018.9mb 63f
2:54 10 15 mph 1019.5mb 63f
1:54 11 18 mph 1019.9mb 63f
12:54 14 18 mph 1020.2mb 63f
mar. 03/19 11:54 11 16 mph 1020.6mb 64f
10:54 10 15 mph 1021.1mb 65f
9:54 7 17 mph 1020.8mb 67f
8:54 6 11 mph 1020.2mb 68f
7:54 7 10 mph 1019.7mb 68f
6:54 9 18 mph 1019.5mb 71f
5:54 7 10 mph 1019mb 71f